Time;durP1;ratioP1;P1;durP2;ratioP2;P2;SDS_P1;SDS_P2;PMS_P1;PMS_P2;Temp;Humidity;BMP_temperature;BMP_pressure;BME280_temperature;BME280_humidity;BME280_pressure;Samples;Min_cycle;Max_cycle;Signal;HPM_P1;HPM_P2
2023/11/09 00:02:56;;;;;;;2.50;1.40;;;;;;;8.98;100.00;100394.69;6062488;29;20237;-68
2023/11/09 00:06:20;;;;;;;1.33;1.07;;;;;;;8.99;100.00;100382.97;6057555;29;20610;-69
2023/11/09 00:09:41;;;;;;;1.00;0.70;;;;;;;8.96;100.00;100389.47;6060834;29;20225;-68
2023/11/09 00:13:03;;;;;;;1.33;0.83;;;;;;;8.92;100.00;100388.06;6062784;29;20319;-68
2023/11/09 00:16:24;;;;;;;0.70;0.70;;;;;;;8.93;100.00;100375.47;6062265;29;20256;-70
2023/11/09 00:19:45;;;;;;;1.47;1.37;;;;;;;8.92;100.00;100371.91;6061531;29;20557;-67
2023/11/09 00:23:10;;;;;;;0.80;0.80;;;;;;;8.99;100.00;100370.38;6059809;29;20236;-68
2023/11/09 00:26:31;;;;;;;1.70;1.30;;;;;;;9.00;100.00;100361.31;6060962;29;20233;-69
2023/11/09 00:29:52;;;;;;;1.53;1.43;;;;;;;8.99;100.00;100350.72;6062178;29;20805;-68
2023/11/09 00:33:13;;;;;;;1.43;1.10;;;;;;;9.01;100.00;100364.88;6056327;29;20237;-68
2023/11/09 00:36:36;;;;;;;1.20;1.10;;;;;;;9.03;100.00;100344.06;6066839;29;20360;-69
2023/11/09 00:39:59;;;;;;;2.40;1.47;;;;;;;9.10;100.00;100347.88;6063870;29;20245;-68
2023/11/09 00:43:20;;;;;;;1.67;1.47;;;;;;;9.02;100.00;100335.16;6059420;29;20345;-69
2023/11/09 00:46:41;;;;;;;3.07;1.23;;;;;;;9.05;100.00;100336.72;6055180;29;20229;-68
2023/11/09 00:50:05;;;;;;;3.40;1.77;;;;;;;9.12;100.00;100333.31;6062794;29;20233;-68
2023/11/09 00:53:26;;;;;;;1.20;1.13;;;;;;;9.09;100.00;100316.63;6073003;29;20249;-68
2023/11/09 00:56:48;;;;;;;2.03;1.03;;;;;;;9.16;100.00;100317.75;6067044;29;20880;-68
2023/11/09 01:00:10;;;;;;;1.07;1.00;;;;;;;9.10;100.00;100304.84;6057346;29;20225;-68
2023/11/09 01:03:31;;;;;;;3.93;3.73;;;;;;;9.12;100.00;100302.88;6058632;29;20607;-69
2023/11/09 01:06:53;;;;;;;1.30;1.20;;;;;;;9.13;100.00;100301.91;6058388;29;20224;-68
2023/11/09 01:10:14;;;;;;;3.37;1.67;;;;;;;9.13;100.00;100297.38;6058850;29;20237;-68
2023/11/09 01:13:36;;;;;;;2.33;2.13;;;;;;;9.13;100.00;100305.44;6055118;29;20249;-68
2023/11/09 01:16:57;;;;;;;5.00;2.60;;;;;;;9.12;100.00;100297.50;6057841;29;20244;-67
2023/11/09 01:20:18;;;;;;;1.53;1.43;;;;;;;9.14;100.00;100292.84;6064083;29;20518;-67
2023/11/09 01:23:40;;;;;;;3.00;1.77;;;;;;;9.15;100.00;100284.66;6054704;29;20237;-68
2023/11/09 01:27:01;;;;;;;1.10;1.00;;;;;;;9.17;100.00;100271.06;6054284;29;20241;-68
2023/11/09 01:30:25;;;;;;;2.33;0.93;;;;;;;9.23;100.00;100278.53;6056166;29;20228;-68
2023/11/09 01:33:46;;;;;;;1.63;0.83;;;;;;;9.22;100.00;100276.88;6061111;29;20260;-68
2023/11/09 01:37:10;;;;;;;1.70;1.47;;;;;;;9.19;100.00;100264.53;6059481;29;20238;-68
2023/11/09 01:40:33;;;;;;;1.37;0.70;;;;;;;9.17;100.00;100252.22;6055506;29;20241;-68
2023/11/09 01:43:58;;;;;;;1.37;1.27;;;;;;;9.20;100.00;100258.16;6059642;29;20226;-69
2023/11/09 01:47:22;;;;;;;1.13;0.93;;;;;;;9.21;100.00;100249.13;6063515;29;20313;-68
2023/11/09 01:50:44;;;;;;;1.03;1.03;;;;;;;9.16;100.00;100248.69;6058172;29;20537;-68
2023/11/09 01:54:05;;;;;;;1.20;0.97;;;;;;;9.17;100.00;100231.56;6060770;29;21963;-69
2023/11/09 01:57:26;;;;;;;1.23;1.03;;;;;;;9.12;100.00;100227.59;6065912;29;20237;-69
2023/11/09 02:00:50;;;;;;;1.40;1.30;;;;;;;9.12;100.00;100223.06;6050442;29;20494;-68
2023/11/09 02:04:11;;;;;;;2.57;1.10;;;;;;;9.10;100.00;100221.50;6059467;29;20249;-68
2023/11/09 02:07:34;;;;;;;0.80;0.80;;;;;;;9.16;100.00;100218.25;6047497;29;20506;-69
2023/11/09 02:10:55;;;;;;;1.87;1.50;;;;;;;9.21;100.00;100206.09;6058205;29;20320;-69
2023/11/09 02:14:16;;;;;;;2.23;1.00;;;;;;;9.26;100.00;100206.50;6068053;29;22289;-69
2023/11/09 02:17:38;;;;;;;1.30;1.07;;;;;;;9.22;100.00;100193.50;6066240;29;20242;-68
2023/11/09 02:21:00;;;;;;;1.40;1.30;;;;;;;9.16;100.00;100196.72;6057296;29;20237;-69
2023/11/09 02:24:25;;;;;;;3.57;0.87;;;;;;;9.15;100.00;100193.22;6067981;29;20546;-68
2023/11/09 02:27:46;;;;;;;3.00;1.90;;;;;;;9.12;100.00;100188.13;6053592;29;20674;-69
2023/11/09 02:31:07;;;;;;;2.07;1.40;;;;;;;9.09;100.00;100191.13;6055059;29;20712;-69
2023/11/09 02:34:29;;;;;;;1.07;1.07;;;;;;;9.09;100.00;100176.81;6056234;29;20642;-70
2023/11/09 02:37:50;;;;;;;2.80;2.07;;;;;;;9.10;100.00;100171.28;6053205;29;20225;-69
2023/11/09 02:41:12;;;;;;;4.00;1.40;;;;;;;9.14;100.00;100172.69;6057780;29;20233;-69
2023/11/09 02:44:34;;;;;;;1.20;1.10;;;;;;;9.14;100.00;100170.00;6056621;29;20268;-69
2023/11/09 02:47:55;;;;;;;1.90;1.43;;;;;;;9.15;100.00;100163.66;6053648;29;20237;-68
2023/11/09 02:51:16;;;;;;;1.63;1.53;;;;;;;9.12;100.00;100161.22;6055349;29;20237;-69
2023/11/09 02:54:38;;;;;;;1.20;0.97;;;;;;;9.16;100.00;100154.56;6071448;29;20233;-69
2023/11/09 02:58:00;;;;;;;1.40;1.30;;;;;;;9.16;100.00;100167.16;6055444;29;20706;-67
2023/11/09 03:01:21;;;;;;;1.30;1.20;;;;;;;9.20;100.00;100150.59;6058723;29;20241;-68
2023/11/09 03:04:42;;;;;;;1.23;1.20;;;;;;;9.20;100.00;100150.59;6062897;29;20234;-68
2023/11/09 03:08:03;;;;;;;1.30;1.20;;;;;;;9.22;100.00;100140.53;6051367;29;20240;-68
2023/11/09 03:11:24;;;;;;;1.33;1.23;;;;;;;9.23;100.00;100136.00;6052929;29;20242;-68
2023/11/09 03:14:47;;;;;;;1.70;1.60;;;;;;;9.25;100.00;100132.19;6053346;29;20232;-69
2023/11/09 03:18:10;;;;;;;1.40;1.30;;;;;;;9.27;100.00;100122.13;6052420;29;20226;-68
2023/11/09 03:21:31;;;;;;;2.47;1.97;;;;;;;9.32;100.00;100119.00;6050753;29;20241;-68
2023/11/09 03:24:53;;;;;;;1.40;1.30;;;;;;;9.28;100.00;100113.06;6053974;29;20242;-68
2023/11/09 03:28:13;;;;;;;1.30;1.20;;;;;;;9.32;100.00;100110.94;6053987;29;20316;-71
2023/11/09 03:31:36;;;;;;;1.30;1.20;;;;;;;9.37;100.00;100114.88;6047063;29;20328;-69
2023/11/09 03:34:57;;;;;;;1.10;1.10;;;;;;;9.33;100.00;100113.47;6030388;29;20234;-69
2023/11/09 03:38:18;;;;;;;1.73;1.20;;;;;;;9.31;100.00;100111.91;6047535;29;20248;-68
2023/11/09 03:41:39;;;;;;;1.83;1.13;;;;;;;9.31;100.00;100109.22;6060013;29;20237;-70
2023/11/09 03:45:00;;;;;;;0.80;0.80;;;;;;;9.31;100.00;100102.03;6056930;29;20237;-69
2023/11/09 03:48:22;;;;;;;0.87;0.80;;;;;;;9.34;100.00;100104.44;6056418;29;20250;-68
2023/11/09 03:51:43;;;;;;;1.33;1.23;;;;;;;9.33;100.00;100105.41;6041181;29;20241;-69
2023/11/09 03:55:05;;;;;;;1.80;1.47;;;;;;;9.35;100.00;100086.44;6057501;29;20237;-69
2023/11/09 03:58:26;;;;;;;0.70;0.70;;;;;;;9.36;100.00;100083.63;6048370;29;20249;-70
2023/11/09 04:01:47;;;;;;;1.00;0.93;;;;;;;9.31;100.00;100080.50;6047914;29;20627;-69
2023/11/09 04:05:10;;;;;;;1.10;1.10;;;;;;;9.35;100.00;100084.59;6050313;29;20249;-69
2023/11/09 04:08:31;;;;;;;1.07;0.97;;;;;;;9.35;100.00;100075.66;6056111;29;20233;-68
2023/11/09 04:11:52;;;;;;;1.40;1.30;;;;;;;9.40;100.00;100076.09;6055139;29;20238;-69
2023/11/09 04:15:14;;;;;;;0.80;0.80;;;;;;;9.38;100.00;100072.69;6050702;29;20240;-69
2023/11/09 04:18:38;;;;;;;1.97;1.20;;;;;;;9.38;100.00;100060.09;6052392;29;20233;-68
2023/11/09 04:22:00;;;;;;;0.97;0.97;;;;;;;9.43;100.00;100067.69;6055753;29;20245;-69
2023/11/09 04:25:24;;;;;;;0.93;0.83;;;;;;;9.44;100.00;100054.13;6052625;29;20257;-69
2023/11/09 04:28:45;;;;;;;1.30;1.20;;;;;;;9.42;100.00;100056.13;6050221;29;20504;-69
2023/11/09 04:32:08;;;;;;;0.80;0.80;;;;;;;9.41;100.00;100058.94;6052186;29;20257;-69
2023/11/09 04:35:30;;;;;;;1.07;0.90;;;;;;;9.40;100.00;100058.09;6051296;29;20320;-69
2023/11/09 04:38:53;;;;;;;2.40;1.00;;;;;;;9.39;100.00;100052.84;6054248;29;20722;-68
2023/11/09 04:42:18;;;;;;;1.53;1.43;;;;;;;9.40;100.00;100055.41;6055422;29;20529;-68
2023/11/09 04:45:42;;;;;;;1.60;1.50;;;;;;;9.44;100.00;100058.66;6061912;29;20229;-70
2023/11/09 04:49:06;;;;;;;1.37;1.27;;;;;;;9.46;100.00;100045.91;6057684;29;20312;-69
2023/11/09 04:52:29;;;;;;;1.97;1.87;;;;;;;9.43;100.00;100049.72;6052655;29;20232;-68
2023/11/09 04:55:57;;;;;;;1.30;1.20;;;;;;;9.46;100.00;100041.38;6057975;29;20225;-69
2023/11/09 05:06:51;;;;;;;1.43;1.33;;;;;;;9.49;100.00;100022.22;6056834;29;20234;-69
2023/11/09 05:10:12;;;;;;;1.73;1.63;;;;;;;9.46;100.00;100019.00;6052605;29;20236;-69
2023/11/09 05:13:34;;;;;;;2.00;1.40;;;;;;;9.45;100.00;100015.44;6058151;29;20230;-69
2023/11/09 05:16:56;;;;;;;1.57;1.27;;;;;;;9.44;100.00;100021.00;6060079;29;20248;-68
2023/11/09 05:20:16;;;;;;;1.60;1.17;;;;;;;9.40;100.00;100015.06;6055261;29;20249;-69
2023/11/09 05:23:37;;;;;;;1.40;1.30;;;;;;;9.39;100.00;100010.66;6057890;29;20253;-69
2023/11/09 05:26:58;;;;;;;1.37;1.27;;;;;;;9.42;100.00;99994.25;6058622;29;20499;-69
2023/11/09 05:30:20;;;;;;;1.93;1.40;;;;;;;9.42;100.00;99990.69;6049546;29;20241;-69
2023/11/09 05:33:47;;;;;;;1.87;1.50;;;;;;;9.38;100.00;100000.94;6054470;29;20320;-70
2023/11/09 05:37:08;;;;;;;3.67;1.20;;;;;;;9.42;100.00;99996.09;6062692;29;20238;-69
2023/11/09 05:40:29;;;;;;;1.60;1.50;;;;;;;9.41;100.00;99997.91;6054994;29;20829;-69
2023/11/09 05:43:50;;;;;;;1.40;0.90;;;;;;;9.43;100.00;99995.91;6061735;29;20233;-69
2023/11/09 05:47:12;;;;;;;4.00;2.10;;;;;;;9.46;100.00;99986.72;6055236;29;20323;-70
2023/11/09 05:50:33;;;;;;;1.87;1.77;;;;;;;9.46;100.00;99986.72;6060209;29;20300;-69
2023/11/09 05:53:56;;;;;;;1.70;1.60;;;;;;;9.43;100.00;99987.84;6056637;29;20256;-69
2023/11/09 05:57:17;;;;;;;1.73;1.63;;;;;;;9.43;100.00;99982.47;6061463;29;20229;-68
2023/11/09 06:00:40;;;;;;;2.47;2.27;;;;;;;9.47;100.00;99980.34;6052728;29;20531;-69
2023/11/09 06:04:02;;;;;;;2.77;2.00;;;;;;;9.50;100.00;99978.19;6058289;29;20330;-68
2023/11/09 06:07:23;;;;;;;1.20;1.10;;;;;;;9.48;100.00;99977.50;6061755;29;20652;-69
2023/11/09 06:10:45;;;;;;;1.70;1.60;;;;;;;9.50;100.00;99977.34;6057754;29;20234;-69
2023/11/09 06:14:07;;;;;;;1.80;1.70;;;;;;;9.48;100.00;99980.19;6056374;29;20236;-67
2023/11/09 06:17:27;;;;;;;1.90;1.80;;;;;;;9.49;100.00;99975.66;6053320;29;20264;-69
2023/11/09 06:20:50;;;;;;;1.83;1.47;;;;;;;9.44;100.00;99977.94;6060736;29;20226;-70
2023/11/09 06:24:11;;;;;;;1.87;1.50;;;;;;;9.36;100.00;99976.03;6060327;29;20237;-69
2023/11/09 06:27:32;;;;;;;2.60;2.00;;;;;;;9.32;100.00;99963.88;6058506;29;20237;-70
2023/11/09 06:30:53;;;;;;;4.80;2.63;;;;;;;9.33;100.00;99967.38;6049736;29;20587;-69
2023/11/09 06:34:15;;;;;;;3.27;2.50;;;;;;;9.33;100.00;99968.25;6060020;29;20561;-70
2023/11/09 06:37:37;;;;;;;2.63;2.40;;;;;;;9.31;100.00;99964.00;6059241;29;20241;-69
2023/11/09 06:40:58;;;;;;;2.53;2.33;;;;;;;9.32;100.00;99966.56;6058794;29;20234;-68
2023/11/09 06:44:19;;;;;;;1.60;1.50;;;;;;;9.41;100.00;99962.09;6051734;29;20240;-69
2023/11/09 06:47:41;;;;;;;2.23;2.03;;;;;;;9.37;100.00;99966.09;6054032;29;20240;-69
2023/11/09 06:51:03;;;;;;;1.63;1.53;;;;;;;9.45;100.00;99963.50;6053988;29;20252;-69
2023/11/09 06:54:25;;;;;;;1.93;1.83;;;;;;;9.40;100.00;99961.28;6048223;29;20229;-69
2023/11/09 06:57:47;;;;;;;2.23;1.30;;;;;;;9.37;100.00;99963.41;6061657;29;20316;-69
2023/11/09 07:01:08;;;;;;;1.90;1.73;;;;;;;9.37;100.00;99974.16;6055684;29;20789;-72
2023/11/09 07:04:29;;;;;;;1.80;1.70;;;;;;;9.38;100.00;99963.28;6042560;29;20253;-69
2023/11/09 07:07:50;;;;;;;4.13;2.27;;;;;;;9.35;100.00;99965.41;6055474;29;20225;-70
2023/11/09 07:11:12;;;;;;;1.87;1.07;;;;;;;9.34;100.00;99964.56;6059892;29;20552;-69
2023/11/09 07:14:33;;;;;;;1.87;1.60;;;;;;;9.42;100.00;99961.97;6057824;29;20707;-69
2023/11/09 07:17:54;;;;;;;1.63;1.43;;;;;;;9.36;100.00;99949.13;6057221;29;20320;-69
2023/11/09 07:21:17;;;;;;;1.43;1.33;;;;;;;9.34;100.00;99959.19;6056671;29;20635;-69
2023/11/09 07:24:39;;;;;;;1.97;1.87;;;;;;;9.33;100.00;99960.16;6062234;29;20628;-70
2023/11/09 07:28:03;;;;;;;2.23;1.43;;;;;;;9.34;100.00;99945.75;6060209;29;20316;-70
2023/11/09 07:31:25;;;;;;;1.37;1.27;;;;;;;9.33;100.00;99948.56;6049074;29;20289;-69
2023/11/09 07:34:46;;;;;;;1.83;1.73;;;;;;;9.38;100.00;99944.44;6059992;29;20250;-70
2023/11/09 07:38:07;;;;;;;3.43;2.10;;;;;;;9.42;100.00;99940.44;6042208;29;22011;-71
2023/11/09 07:41:28;;;;;;;2.23;1.30;;;;;;;9.38;100.00;99954.34;6058734;29;20598;-70
2023/11/09 07:44:51;;;;;;;1.97;1.77;;;;;;;9.36;100.00;99961.72;6054398;29;20241;-69
2023/11/09 07:48:12;;;;;;;1.53;1.30;;;;;;;9.37;100.00;99953.50;6061816;29;20320;-70
2023/11/09 07:51:33;;;;;;;3.03;1.27;;;;;;;9.40;100.00;99947.81;6047270;29;20233;-69
2023/11/09 07:54:54;;;;;;;1.63;1.53;;;;;;;9.43;100.00;99949.34;6053518;29;20232;-70
2023/11/09 07:58:15;;;;;;;1.60;1.50;;;;;;;9.41;100.00;99952.19;6061131;29;20232;-69
2023/11/09 08:01:37;;;;;;;2.70;1.80;;;;;;;9.42;100.00;99961.13;6049560;29;20229;-70
2023/11/09 08:04:58;;;;;;;3.17;2.00;;;;;;;9.47;100.00;99946.19;6046975;29;20288;-69
2023/11/09 08:08:22;;;;;;;3.10;1.40;;;;;;;9.48;100.00;99953.28;6048900;29;20244;-70
2023/11/09 08:11:43;;;;;;;3.43;2.00;;;;;;;9.51;100.00;99939.50;6056652;29;20237;-69
2023/11/09 08:15:10;;;;;;;1.40;1.30;;;;;;;9.51;100.00;99949.47;6055669;29;20241;-70
2023/11/09 08:18:32;;;;;;;3.20;1.60;;;;;;;9.42;100.00;99945.81;6062340;29;20244;-69
2023/11/09 08:21:53;;;;;;;2.63;1.67;;;;;;;9.41;100.00;99941.44;6060204;29;20540;-68
2023/11/09 08:25:15;;;;;;;2.60;1.53;;;;;;;9.41;100.00;99944.13;6051588;29;20261;-69
2023/11/09 08:28:35;;;;;;;3.97;2.77;;;;;;;9.38;100.00;99951.66;6063856;29;20260;-70
2023/11/09 08:32:02;;;;;;;1.30;1.20;;;;;;;9.37;100.00;99963.41;6058233;29;20244;-68
2023/11/09 08:35:24;;;;;;;1.70;1.57;;;;;;;9.38;100.00;99962.41;6065974;29;20256;-70
2023/11/09 08:38:45;;;;;;;1.50;1.40;;;;;;;9.39;100.00;99956.88;6051178;29;20233;-70
2023/11/09 08:42:07;;;;;;;1.57;1.30;;;;;;;9.34;100.00;99963.72;6056332;29;20233;-70
2023/11/09 08:45:29;;;;;;;1.43;1.13;;;;;;;9.35;100.00;99971.63;6062685;29;20246;-70
2023/11/09 08:48:51;;;;;;;1.93;1.63;;;;;;;9.40;100.00;99949.66;6065220;29;20234;-69
2023/11/09 08:52:14;;;;;;;1.53;1.43;;;;;;;9.38;100.00;99960.56;6064489;29;20233;-70
2023/11/09 08:55:36;;;;;;;1.47;1.37;;;;;;;9.41;100.00;99946.81;6064527;29;20312;-69
2023/11/09 08:58:57;;;;;;;1.37;1.27;;;;;;;9.51;100.00;99942.22;6060745;29;20220;-70
2023/11/09 09:02:18;;;;;;;1.90;1.33;;;;;;;9.45;100.00;99942.00;6063359;29;20264;-70
2023/11/09 09:05:38;;;;;;;2.70;1.50;;;;;;;9.52;100.00;99937.69;6061410;29;20642;-70
2023/11/09 09:09:01;;;;;;;2.07;1.87;;;;;;;9.45;100.00;99936.63;6061839;29;20233;-70
2023/11/09 09:12:23;;;;;;;1.40;1.30;;;;;;;9.47;100.00;99943.50;6061046;29;20237;-70
2023/11/09 09:15:48;;;;;;;1.07;0.83;;;;;;;9.47;100.00;99942.69;6071983;29;20245;-69
2023/11/09 09:19:09;;;;;;;1.27;1.17;;;;;;;9.52;100.00;99938.53;6061630;29;20240;-70
2023/11/09 09:22:30;;;;;;;1.70;1.30;;;;;;;9.59;100.00;99942.31;6058950;29;20233;-70
2023/11/09 09:25:54;;;;;;;1.60;1.50;;;;;;;9.58;100.00;99945.13;6062968;29;20610;-70
2023/11/09 09:29:17;;;;;;;0.50;0.50;;;;;;;9.65;100.00;99938.16;6062394;29;20554;-69
2023/11/09 09:32:39;;;;;;;0.90;0.90;;;;;;;9.66;100.00;99938.00;6058833;29;20596;-70
2023/11/09 09:36:00;;;;;;;1.13;0.90;;;;;;;9.63;100.00;99941.00;6057740;29;20548;-70
2023/11/09 09:39:21;;;;;;;0.80;0.80;;;;;;;9.65;100.00;99944.38;6062586;29;20511;-71
2023/11/09 09:42:46;;;;;;;1.33;0.50;;;;;;;9.73;100.00;99961.59;6060510;29;20232;-70
2023/11/09 09:46:09;;;;;;;1.83;0.70;;;;;;;9.73;100.00;99965.16;6058972;29;20303;-70
2023/11/09 09:49:30;;;;;;;0.87;0.87;;;;;;;9.77;100.00;99955.75;6050188;29;20229;-69
2023/11/09 09:52:53;;;;;;;1.10;1.00;;;;;;;9.84;100.00;99956.00;6063938;29;20755;-70
2023/11/09 09:56:13;;;;;;;0.97;0.97;;;;;;;9.86;100.00;99972.84;6054510;29;20233;-70
2023/11/09 09:59:39;;;;;;;3.57;2.67;;;;;;;9.90;100.00;99958.91;6057008;29;20758;-70
2023/11/09 10:03:06;;;;;;;1.70;1.23;;;;;;;9.94;100.00;99959.44;6061625;29;20300;-70
2023/11/09 10:06:27;;;;;;;1.20;1.10;;;;;;;9.95;100.00;99961.16;6058706;29;20614;-70
2023/11/09 10:09:50;;;;;;;1.27;1.23;;;;;;;9.96;100.00;99957.44;6061390;29;20543;-70
2023/11/09 10:13:13;;;;;;;3.73;3.30;;;;;;;9.99;100.00;99949.91;6059889;29;20331;-70
2023/11/09 10:16:36;;;;;;;1.40;1.30;;;;;;;9.91;100.00;99951.69;6058766;29;20237;-70
2023/11/09 10:19:58;;;;;;;1.57;1.47;;;;;;;9.94;100.00;99965.69;6041863;29;20553;-70
2023/11/09 10:23:18;;;;;;;1.10;1.00;;;;;;;10.03;100.00;99955.84;6061534;29;20249;-70
2023/11/09 10:26:41;;;;;;;0.93;0.80;;;;;;;9.95;100.00;99963.84;6058446;29;20236;-68
2023/11/09 10:30:03;;;;;;;1.97;1.80;;;;;;;10.00;100.00;99958.81;6060555;29;20245;-69
2023/11/09 10:33:30;;;;;;;1.37;1.27;;;;;;;9.95;100.00;99958.47;6068390;29;20530;-70
2023/11/09 10:36:51;;;;;;;2.67;1.07;;;;;;;9.95;100.00;99958.47;6061084;29;20273;-69
2023/11/09 10:40:13;;;;;;;1.40;1.30;;;;;;;9.93;100.00;99961.28;6058552;29;20249;-70
2023/11/09 10:43:34;;;;;;;1.57;1.10;;;;;;;9.95;100.00;99958.47;6059926;29;20233;-69
2023/11/09 10:46:56;;;;;;;1.90;1.60;;;;;;;10.00;100.00;99948.06;6056015;29;20234;-71
2023/11/09 10:50:24;;;;;;;4.20;1.50;;;;;;;10.05;100.00;99940.38;6054992;29;20324;-70
2023/11/09 10:53:48;;;;;;;4.00;1.30;;;;;;;10.06;100.00;99937.50;6052712;29;20244;-71
2023/11/09 10:57:10;;;;;;;1.53;1.43;;;;;;;10.07;100.00;99936.53;6062448;29;20530;-71
2023/11/09 11:00:34;;;;;;;4.27;1.73;;;;;;;10.13;100.00;99932.38;6056234;29;20225;-72
2023/11/09 11:03:58;;;;;;;1.60;1.50;;;;;;;10.16;100.00;99932.06;6054414;29;20259;-73
2023/11/09 11:07:25;;;;;;;2.30;2.10;;;;;;;10.18;100.00;99924.69;6067252;29;20233;-72
2023/11/09 11:10:51;;;;;;;2.03;1.93;;;;;;;10.21;100.00;99921.66;6054707;29;20236;-72
2023/11/09 11:14:15;;;;;;;1.83;1.73;;;;;;;10.32;100.00;99924.97;6057802;29;20241;-72
2023/11/09 11:17:45;;;;;;;2.40;2.17;;;;;;;10.34;100.00;99925.66;6060851;29;23713;-72
2023/11/09 11:21:20;;;;;;;1.60;1.50;;;;;;;10.41;100.00;99925.84;6057980;29;20234;-71
2023/11/09 11:25:06;;;;;;;1.90;1.80;;;;;;;10.41;100.00;99918.59;6061369;29;20543;-71
2023/11/09 11:28:29;;;;;;;2.77;2.57;;;;;;;10.50;100.00;99924.91;6044975;29;20627;-71
2023/11/09 11:31:52;;;;;;;1.63;1.53;;;;;;;10.59;100.00;99917.72;6057396;29;20257;-72
2023/11/09 11:35:14;;;;;;;1.93;1.70;;;;;;;10.55;100.00;99922.59;6058648;29;20229;-72
2023/11/09 11:38:36;;;;;;;2.87;2.67;;;;;;;10.70;100.00;99910.19;6059780;29;20285;-72
2023/11/09 11:42:16;;;;;;;1.47;1.37;;;;;;;10.60;100.00;99914.03;6052099;29;20553;-72
2023/11/09 11:45:37;;;;;;;2.63;2.43;;;;;;;10.67;100.00;99909.66;6055008;29;20245;-73
2023/11/09 11:49:03;;;;;;;4.40;2.30;;;;;;;10.59;100.00;99917.72;6058493;29;20249;-72
2023/11/09 11:52:24;;;;;;;1.87;1.77;;;;;;;10.55;100.00;99925.28;6060833;29;20226;-72
2023/11/09 11:55:57;;;;;;;1.90;1.80;;;;;;;10.54;100.00;99926.25;6059548;29;20914;-72
2023/11/09 11:59:22;;;;;;;4.07;2.33;;;;;;;10.56;100.00;99926.09;6060760;29;20604;-72
2023/11/09 12:02:50;;;;;;;2.00;1.90;;;;;;;10.58;100.00;99907.91;6067099;29;20233;-73
2023/11/09 12:06:13;;;;;;;1.60;1.50;;;;;;;10.65;100.00;99914.38;6066013;29;20660;-72
2023/11/09 12:09:33;;;;;;;1.87;1.77;;;;;;;10.66;100.00;99913.38;6062090;29;20603;-72
2023/11/09 12:12:56;;;;;;;2.03;1.93;;;;;;;10.67;100.00;99906.97;6060052;29;20237;-71
2023/11/09 12:16:18;;;;;;;2.03;1.93;;;;;;;10.68;100.00;99906.81;6063498;29;20516;-73
2023/11/09 12:19:42;;;;;;;1.10;1.10;;;;;;;10.97;100.00;99903.75;6048132;29;20251;-71
2023/11/09 12:23:06;;;;;;;4.13;1.90;;;;;;;10.95;100.00;99919.25;6060190;29;20236;-70
2023/11/09 12:26:32;;;;;;;2.13;1.90;;;;;;;10.80;100.00;99910.06;6043755;29;20715;-70
2023/11/09 12:29:53;;;;;;;1.50;1.40;;;;;;;10.84;100.00;99904.22;6056983;29;20246;-69
2023/11/09 12:33:15;;;;;;;1.60;1.50;;;;;;;10.99;100.00;99904.44;6057650;29;20842;-69
2023/11/09 12:36:38;;;;;;;1.33;1.30;;;;;;;10.99;100.00;99905.25;6055729;29;20233;-69
2023/11/09 12:40:04;;;;;;;1.40;1.30;;;;;;;11.04;100.00;99918.25;6063103;29;20229;-69
2023/11/09 12:43:36;;;;;;;2.77;1.43;;;;;;;11.09;100.00;99902.44;6059460;29;20318;-69
2023/11/09 12:46:59;;;;;;;2.70;2.50;;;;;;;11.21;100.00;99893.88;6049317;29;20240;-68
2023/11/09 12:50:28;;;;;;;1.30;1.20;;;;;;;11.24;100.00;99892.72;6058559;29;20234;-70
2023/11/09 12:53:50;;;;;;;1.17;1.17;;;;;;;11.23;100.00;99891.03;6058840;29;20260;-70
2023/11/09 12:57:16;;;;;;;1.57;1.47;;;;;;;11.21;100.00;99901.97;6059155;29;20226;-70
2023/11/09 13:00:38;;;;;;;1.00;0.90;;;;;;;11.15;100.00;99905.34;6058110;29;20261;-69
2023/11/09 13:03:59;;;;;;;2.80;1.60;;;;;;;11.14;100.00;99903.63;6062863;29;20233;-69
2023/11/09 13:07:25;;;;;;;1.60;1.20;;;;;;;11.18;100.00;99898.78;6066760;29;20692;-69
2023/11/09 13:10:55;;;;;;;1.03;1.03;;;;;;;11.17;100.00;99900.63;6052013;29;20230;-70
2023/11/09 13:14:19;;;;;;;1.00;1.00;;;;;;;11.15;100.00;99905.34;6073682;29;20673;-69
2023/11/09 13:17:50;;;;;;;1.33;1.27;;;;;;;11.11;100.00;99916.59;6064488;29;20229;-70
2023/11/09 13:21:18;;;;;;;2.03;1.53;;;;;;;11.14;100.00;99913.56;6063859;29;20229;-70
2023/11/09 13:24:42;;;;;;;3.17;1.37;;;;;;;11.06;100.00;99917.09;6062956;29;20236;-69
2023/11/09 13:28:06;;;;;;;4.23;2.17;;;;;;;10.95;100.00;99922.78;6068681;29;20625;-70
2023/11/09 13:31:30;;;;;;;1.83;1.30;;;;;;;10.96;100.00;99920.94;6057210;29;20386;-71
2023/11/09 13:35:13;;;;;;;2.43;1.60;;;;;;;10.97;100.00;99915.34;6058574;29;20229;-69
2023/11/09 13:38:43;;;;;;;1.80;1.43;;;;;;;11.01;100.00;99908.63;6062894;29;20249;-69
2023/11/09 13:42:17;;;;;;;1.63;1.53;;;;;;;10.91;100.00;99915.19;6054963;29;20640;-68
2023/11/09 13:45:46;;;;;;;1.50;1.40;;;;;;;10.97;100.00;99918.06;6061862;29;20550;-69
2023/11/09 13:49:21;;;;;;;1.90;1.80;;;;;;;10.98;100.00;99921.59;6064158;29;20510;-70
2023/11/09 13:52:49;;;;;;;1.60;1.50;;;;;;;11.02;100.00;99913.03;6061472;29;20714;-69
2023/11/09 13:56:40;;;;;;;1.90;1.73;;;;;;;11.21;100.00;99920.00;6057404;29;20627;-70
2023/11/09 14:00:15;;;;;;;3.00;1.60;;;;;;;11.08;100.00;99912.38;6053097;29;20236;-71
2023/11/09 14:03:39;;;;;;;2.10;1.90;;;;;;;11.06;100.00;99913.53;6060050;29;20229;-70
2023/11/09 14:07:02;;;;;;;1.73;1.63;;;;;;;11.07;100.00;99920.66;6060638;29;20232;-70
2023/11/09 14:10:28;;;;;;;1.47;1.37;;;;;;;11.00;100.00;99922.28;6047869;29;20234;-69
2023/11/09 14:13:51;;;;;;;2.30;1.60;;;;;;;11.06;100.00;99925.19;6058855;29;20233;-68
2023/11/09 14:17:16;;;;;;;3.30;1.30;;;;;;;10.99;100.00;99921.44;6057520;29;20327;-71
2023/11/09 14:20:41;;;;;;;3.33;2.20;;;;;;;10.97;100.00;99917.25;6063157;29;20225;-70
2023/11/09 14:24:04;;;;;;;1.87;1.73;;;;;;;10.87;100.00;99903.00;6062142;29;20241;-70
2023/11/09 14:27:25;;;;;;;2.83;1.73;;;;;;;10.77;100.00;99918.47;6062982;28;20241;-68
2023/11/09 14:30:47;;;;;;;1.40;1.20;;;;;;;10.78;100.00;99912.09;6062225;29;20263;-70
2023/11/09 14:34:10;;;;;;;1.90;1.23;;;;;;;10.78;100.00;99915.63;6061856;29;20414;-70
2023/11/09 14:37:32;;;;;;;1.43;1.10;;;;;;;10.67;100.00;99921.31;6058132;29;20225;-70
2023/11/09 14:40:56;;;;;;;2.13;1.80;;;;;;;10.62;100.00;99920.09;6064029;29;20325;-70
2023/11/09 14:44:19;;;;;;;3.17;1.27;;;;;;;10.56;100.00;99931.50;6063084;29;20241;-70
2023/11/09 14:47:43;;;;;;;1.93;1.60;;;;;;;10.54;100.00;99914.63;6053559;29;20509;-70
2023/11/09 14:51:10;;;;;;;3.37;1.37;;;;;;;10.60;100.00;99919.41;6064089;29;20244;-69
2023/11/09 14:54:34;;;;;;;3.33;1.50;;;;;;;10.52;100.00;99917.50;6066339;29;20571;-70
2023/11/09 14:57:57;;;;;;;18.27;3.00;;;;;;;10.46;100.00;99918.13;6062101;29;20237;-70
2023/11/09 15:01:18;;;;;;;4.67;2.60;;;;;;;10.41;100.00;99917.75;6062670;29;20249;-70
2023/11/09 15:04:39;;;;;;;3.13;1.73;;;;;;;10.38;100.00;99908.16;6059981;29;20233;-70
2023/11/09 15:08:02;;;;;;;4.63;1.80;;;;;;;10.34;100.00;99906.78;6068787;29;20237;-70
2023/11/09 15:11:23;;;;;;;2.70;2.07;;;;;;;10.34;100.00;99908.63;6062449;29;20348;-69
2023/11/09 15:14:44;;;;;;;3.33;2.00;;;;;;;10.26;100.00;99903.19;6064297;29;20237;-70
2023/11/09 15:18:06;;;;;;;2.73;2.40;;;;;;;10.19;100.00;99911.06;6068937;29;20237;-71
2023/11/09 15:21:26;;;;;;;3.17;2.40;;;;;;;10.12;100.00;99918.06;6061021;29;20320;-70
2023/11/09 15:25:04;;;;;;;10.27;1.90;;;;;;;10.10;100.00;99921.88;6049927;29;20232;-71
2023/11/09 15:28:25;;;;;;;4.87;2.33;;;;;;;10.08;100.00;99929.28;6065670;29;20233;-69
2023/11/09 15:31:46;;;;;;;2.23;1.83;;;;;;;10.05;100.00;99924.22;6061527;29;20242;-69
2023/11/09 15:35:11;;;;;;;4.33;2.37;;;;;;;10.04;100.00;99927.88;6057232;29;20260;-70
2023/11/09 15:38:32;;;;;;;3.57;2.17;;;;;;;9.98;100.00;99931.22;6067265;29;20229;-70
2023/11/09 15:41:54;;;;;;;5.47;3.00;;;;;;;9.91;100.00;99938.25;6063152;29;20741;-70
2023/11/09 15:45:15;;;;;;;2.63;2.33;;;;;;;9.84;100.00;99934.47;6062722;29;20242;-70
2023/11/09 15:48:40;;;;;;;13.33;4.13;;;;;;;9.81;100.00;99938.31;6061044;29;20312;-70
2023/11/09 15:52:01;;;;;;;8.27;2.70;;;;;;;9.73;100.00;99929.31;6066168;29;20236;-70
2023/11/09 15:55:23;;;;;;;3.33;2.90;;;;;;;9.65;100.00;99930.94;6061726;29;20245;-69
2023/11/09 15:58:48;;;;;;;4.43;2.53;;;;;;;9.60;100.00;99935.91;6056633;29;20233;-70